createdAt,value
2022-11-07T00:01:39.543Z,10.81
2022-11-07T00:04:06.159Z,10.79
2022-11-07T00:06:32.750Z,10.77
2022-11-07T00:08:59.319Z,10.77
2022-11-07T00:11:28.102Z,10.77
2022-11-07T00:13:57.185Z,10.72
2022-11-07T00:16:23.972Z,10.70
2022-11-07T00:18:50.531Z,10.70
2022-11-07T00:21:19.427Z,10.68
2022-11-07T00:23:45.982Z,10.69
2022-11-07T00:26:17.256Z,10.74
2022-11-07T00:28:44.405Z,10.73
2022-11-07T00:31:13.272Z,10.74
2022-11-07T00:33:45.804Z,10.65
2022-11-07T00:36:22.910Z,10.72
2022-11-07T00:38:49.466Z,10.73
2022-11-07T00:41:19.959Z,10.72
2022-11-07T00:43:46.714Z,10.67
2022-11-07T00:46:15.237Z,10.73
2022-11-07T00:48:42.233Z,10.71
2022-11-07T00:51:13.575Z,10.69
2022-11-07T00:53:40.308Z,10.63
2022-11-07T00:56:12.388Z,10.63
2022-11-07T00:58:42.712Z,10.64
2022-11-07T01:01:20.658Z,10.60
2022-11-07T01:04:06.255Z,10.59
2022-11-07T01:06:34.910Z,10.55
2022-11-07T01:09:01.753Z,10.51
2022-11-07T01:11:29.454Z,10.54
2022-11-07T01:14:01.125Z,10.49
2022-11-07T01:16:30.061Z,10.49
2022-11-07T01:18:57.470Z,10.49
2022-11-07T01:21:24.116Z,10.48
2022-11-07T01:23:50.738Z,10.49
2022-11-07T01:26:18.160Z,10.47
2022-11-07T01:28:45.954Z,10.46
2022-11-07T01:31:16.228Z,10.49
2022-11-07T01:33:43.899Z,10.53
2022-11-07T01:36:15.670Z,10.60
2022-11-07T01:38:45.568Z,10.66
2022-11-07T01:41:24.671Z,10.64
2022-11-07T01:44:02.027Z,10.53
2022-11-07T01:46:40.302Z,10.52
2022-11-07T01:49:22.292Z,10.57
2022-11-07T01:51:55.705Z,10.59
2022-11-07T01:54:26.880Z,10.63
2022-11-07T01:56:57.115Z,10.56
2022-11-07T01:59:28.626Z,10.53
2022-11-07T02:01:55.754Z,10.51
2022-11-07T02:04:25.988Z,10.56
2022-11-07T02:06:59.893Z,10.52
2022-11-07T02:09:31.394Z,10.61
2022-11-07T02:12:01.100Z,10.66
2022-11-07T02:14:29.268Z,10.68
2022-11-07T02:16:56.256Z,10.67
2022-11-07T02:19:41.518Z,10.76
2022-11-07T02:22:32.918Z,10.85
2022-11-07T02:25:03.178Z,10.83
2022-11-07T02:27:35.110Z,10.89
2022-11-07T02:30:12.171Z,10.88
2022-11-07T02:32:38.953Z,10.87
2022-11-07T02:35:27.433Z,10.84
2022-11-07T02:37:55.103Z,10.75
2022-11-07T02:40:22.143Z,10.85
2022-11-07T02:42:49.012Z,10.80
2022-11-07T02:45:15.576Z,10.89
2022-11-07T02:47:45.303Z,10.85
2022-11-07T02:50:14.650Z,10.85
2022-11-07T02:52:41.503Z,10.88
2022-11-07T02:55:09.241Z,10.91
2022-11-07T02:57:38.547Z,10.96
2022-11-07T03:00:07.222Z,10.94
2022-11-07T03:02:33.879Z,10.96
2022-11-07T03:05:03.388Z,10.89
2022-11-07T03:07:32.264Z,10.93
2022-11-07T03:09:58.820Z,10.93
2022-11-07T03:12:25.376Z,10.92
2022-11-07T03:14:52.056Z,10.91
2022-11-07T03:17:18.614Z,10.95
2022-11-07T03:19:45.151Z,10.86
2022-11-07T03:22:14.096Z,10.93
2022-11-07T03:24:40.607Z,10.94
2022-11-07T03:27:07.114Z,10.88
2022-11-07T03:29:33.606Z,10.94
2022-11-07T03:32:00.172Z,10.94
2022-11-07T03:34:26.680Z,10.95
2022-11-07T03:36:53.151Z,10.93
2022-11-07T03:39:25.477Z,10.97
2022-11-07T03:41:54.659Z,10.97
2022-11-07T03:44:21.276Z,10.94
2022-11-07T03:46:47.846Z,10.97
2022-11-07T03:49:14.445Z,11.02
2022-11-07T03:51:40.989Z,11.04
2022-11-07T03:54:10.427Z,11.04
2022-11-07T03:56:36.968Z,11.07
2022-11-07T03:59:03.558Z,11.09
2022-11-07T04:01:30.250Z,11.11
2022-11-07T04:03:56.905Z,11.05
2022-11-07T04:06:23.629Z,11.12
2022-11-07T04:08:50.189Z,11.20
2022-11-07T04:11:37.826Z,11.20
2022-11-07T04:14:25.270Z,11.26
2022-11-07T04:17:10.518Z,11.27
2022-11-07T04:19:37.043Z,11.27
2022-11-07T04:22:03.550Z,11.26
2022-11-07T04:24:30.061Z,11.24
2022-11-07T04:27:14.947Z,11.26
2022-11-07T04:29:41.540Z,11.27
2022-11-07T04:32:08.066Z,11.30
2022-11-07T04:34:37.827Z,11.29
2022-11-07T04:37:04.570Z,11.25
2022-11-07T04:39:33.348Z,11.25
2022-11-07T04:41:59.892Z,11.22
2022-11-07T04:44:28.801Z,11.20
2022-11-07T04:46:55.287Z,11.20
2022-11-07T04:49:21.827Z,11.21
2022-11-07T04:51:49.117Z,11.20
2022-11-07T04:54:15.928Z,11.19
2022-11-07T04:56:47.448Z,11.17
2022-11-07T04:59:14.005Z,11.15
2022-11-07T05:01:40.604Z,11.14
2022-11-07T05:04:07.147Z,11.16
2022-11-07T05:06:38.744Z,11.21
2022-11-07T05:09:05.359Z,11.25
2022-11-07T05:11:31.872Z,11.28
2022-11-07T05:14:00.630Z,11.31
2022-11-07T05:16:28.822Z,11.36
2022-11-07T05:18:55.381Z,11.33
2022-11-07T05:21:24.435Z,11.39
2022-11-07T05:23:50.936Z,11.40
2022-11-07T05:26:19.846Z,11.45
2022-11-07T05:28:48.966Z,11.49
2022-11-07T05:31:17.690Z,11.45
2022-11-07T05:33:44.774Z,11.50
2022-11-07T05:36:22.693Z,11.56
2022-11-07T05:38:51.870Z,11.57
2022-11-07T05:41:19.657Z,11.55
2022-11-07T05:43:46.887Z,11.55
2022-11-07T05:46:14.206Z,11.53
2022-11-07T05:48:42.989Z,11.52
2022-11-07T05:51:09.685Z,11.53
2022-11-07T05:53:36.562Z,11.54
2022-11-07T05:56:03.541Z,11.55
2022-11-07T05:58:32.694Z,11.53
2022-11-07T06:01:04.394Z,11.49
2022-11-07T06:03:31.985Z,11.53
2022-11-07T06:05:58.808Z,11.45
2022-11-07T06:08:25.537Z,11.46
2022-11-07T06:10:52.168Z,11.41
2022-11-07T06:13:19.039Z,11.32
2022-11-07T06:15:46.782Z,11.35
2022-11-07T06:18:21.184Z,11.35
2022-11-07T06:20:47.785Z,11.30
2022-11-07T06:23:14.749Z,11.31
2022-11-07T06:25:44.168Z,11.36
2022-11-07T06:28:12.890Z,11.32
2022-11-07T06:30:40.301Z,11.39
2022-11-07T06:33:10.789Z,11.49
2022-11-07T06:35:37.613Z,11.48
2022-11-07T06:38:06.046Z,11.57
2022-11-07T06:40:32.876Z,11.60
2022-11-07T06:43:11.057Z,11.64
2022-11-07T06:45:38.585Z,11.66
2022-11-07T06:48:05.749Z,11.67
2022-11-07T06:50:32.608Z,11.65
2022-11-07T06:53:07.951Z,11.67
2022-11-07T06:55:35.948Z,11.69
2022-11-07T06:58:03.934Z,11.77
2022-11-07T07:00:32.977Z,11.78
2022-11-07T07:02:59.713Z,11.77
2022-11-07T07:05:27.043Z,11.77
2022-11-07T07:07:55.421Z,11.86
2022-11-07T07:10:22.863Z,11.90
2022-11-07T07:12:49.426Z,11.93
2022-11-07T07:15:16.070Z,11.92
2022-11-07T07:17:45.076Z,12.00
2022-11-07T07:20:12.063Z,12.03
2022-11-07T07:22:38.656Z,12.07
2022-11-07T07:25:08.146Z,12.13
2022-11-07T07:27:34.683Z,12.19
2022-11-07T07:30:01.212Z,12.21
2022-11-07T07:32:27.818Z,12.24
2022-11-07T07:34:56.623Z,12.24
2022-11-07T07:37:25.570Z,12.35
2022-11-07T07:39:54.531Z,12.39
2022-11-07T07:42:25.976Z,12.40
2022-11-07T07:44:52.471Z,12.50
2022-11-07T07:47:21.568Z,12.52
2022-11-07T07:49:48.122Z,12.43
2022-11-07T07:52:14.672Z,12.57
2022-11-07T07:54:41.181Z,12.64
2022-11-07T07:57:07.860Z,12.61
2022-11-07T07:59:34.451Z,12.81
2022-11-07T08:02:01.132Z,12.94
2022-11-07T08:04:27.695Z,13.07
2022-11-07T08:06:54.197Z,13.08
2022-11-07T08:09:20.842Z,13.04
2022-11-07T08:11:47.376Z,13.01
2022-11-07T08:14:14.294Z,12.98
2022-11-07T08:16:43.120Z,13.02
2022-11-07T08:19:09.725Z,12.99
2022-11-07T08:21:36.487Z,12.99
2022-11-07T08:24:03.543Z,13.02
2022-11-07T08:26:30.497Z,13.11
2022-11-07T08:28:57.083Z,13.15
2022-11-07T08:31:23.722Z,13.20
2022-11-07T08:33:53.148Z,13.37
2022-11-07T08:36:19.842Z,13.58
2022-11-07T08:38:46.385Z,13.68
2022-11-07T08:41:12.942Z,13.85
2022-11-07T08:43:39.574Z,13.96
2022-11-07T08:46:06.193Z,14.08
2022-11-07T08:48:32.918Z,14.14
2022-11-07T08:50:59.636Z,14.10
2022-11-07T08:53:26.914Z,14.11
2022-11-07T08:56:00.074Z,14.22
2022-11-07T08:58:29.961Z,14.13
2022-11-07T09:00:57.501Z,14.03
2022-11-07T09:03:44.397Z,13.96
2022-11-07T09:06:11.004Z,13.92
2022-11-07T09:08:40.842Z,13.87
2022-11-07T09:11:07.409Z,13.92
2022-11-07T09:13:34.698Z,13.84
2022-11-07T09:16:05.714Z,13.88
2022-11-07T09:18:33.199Z,13.90
2022-11-07T09:21:01.913Z,13.94
2022-11-07T09:23:28.672Z,13.89
2022-11-07T09:25:55.247Z,13.91
2022-11-07T09:28:21.857Z,13.91
2022-11-07T09:30:53.795Z,13.89
2022-11-07T09:33:26.068Z,13.90
2022-11-07T09:35:55.333Z,13.92
2022-11-07T09:38:21.915Z,13.88
2022-11-07T09:41:26.272Z,13.86
2022-11-07T09:44:04.959Z,13.88
2022-11-07T09:46:47.128Z,13.89
2022-11-07T09:49:26.263Z,13.93
2022-11-07T09:52:04.385Z,13.97
2022-11-07T09:54:37.199Z,13.98
2022-11-07T09:57:04.226Z,14.09
2022-11-07T09:59:30.687Z,14.19
2022-11-07T10:01:57.644Z,14.42
2022-11-07T10:04:26.293Z,14.69
2022-11-07T10:07:05.181Z,14.85
2022-11-07T10:09:50.345Z,15.08
2022-11-07T10:12:22.807Z,15.13
2022-11-07T10:15:21.210Z,15.16
2022-11-07T10:17:58.784Z,15.31
2022-11-07T10:20:44.127Z,15.36
2022-11-07T10:23:55.180Z,15.29
2022-11-07T10:26:25.554Z,15.25
2022-11-07T10:29:11.766Z,15.30
2022-11-07T10:31:46.690Z,15.23
2022-11-07T10:34:34.798Z,15.14
2022-11-07T10:37:01.533Z,15.12
2022-11-07T10:39:31.001Z,15.12
2022-11-07T10:42:16.149Z,15.09
2022-11-07T10:44:43.719Z,15.01
2022-11-07T10:47:19.022Z,15.00
2022-11-07T10:50:05.271Z,15.01
2022-11-07T10:52:31.777Z,14.99
2022-11-07T10:55:09.774Z,15.07
2022-11-07T10:57:36.453Z,15.07
2022-11-07T11:00:05.736Z,15.03
2022-11-07T11:02:49.403Z,15.02
2022-11-07T11:05:42.682Z,15.04
2022-11-07T11:08:19.274Z,15.11
2022-11-07T11:10:47.222Z,15.08
2022-11-07T11:13:29.971Z,15.11
2022-11-07T11:16:05.315Z,14.94
2022-11-07T11:18:32.868Z,15.09
2022-11-07T11:21:06.717Z,15.28
2022-11-07T11:23:37.585Z,15.37
2022-11-07T11:26:17.284Z,15.47
2022-11-07T11:29:01.756Z,15.46
2022-11-07T11:31:46.109Z,15.51
2022-11-07T11:34:24.301Z,15.54
2022-11-07T11:37:01.837Z,15.64
2022-11-07T11:39:37.609Z,15.79
2022-11-07T11:42:05.236Z,15.83
2022-11-07T11:44:40.488Z,15.81
2022-11-07T11:47:29.151Z,15.78
2022-11-07T11:50:12.321Z,15.72
2022-11-07T11:52:39.538Z,15.65
2022-11-07T11:55:14.265Z,15.65
2022-11-07T11:58:10.255Z,15.71
2022-11-07T12:00:44.690Z,15.77
2022-11-07T12:03:14.421Z,15.81
2022-11-07T12:06:08.566Z,15.79
2022-11-07T12:08:56.048Z,15.76
2022-11-07T12:11:31.126Z,15.81
2022-11-07T12:14:16.467Z,15.88
2022-11-07T12:16:53.035Z,15.98
2022-11-07T12:19:34.524Z,16.12
2022-11-07T12:22:14.920Z,16.14
2022-11-07T12:25:03.508Z,16.14
2022-11-07T12:27:36.918Z,16.17
2022-11-07T12:30:42.904Z,16.23
2022-11-07T12:33:24.272Z,16.31
2022-11-07T12:36:11.029Z,16.40
2022-11-07T12:39:02.758Z,16.60
2022-11-07T12:41:29.274Z,16.73
2022-11-07T12:44:00.715Z,16.70
2022-11-07T12:46:43.212Z,16.77
2022-11-07T12:49:39.534Z,16.76
2022-11-07T12:52:31.783Z,16.57
2022-11-07T12:55:19.661Z,16.67
2022-11-07T12:57:49.922Z,16.55
2022-11-07T13:00:26.027Z,16.44
2022-11-07T13:03:32.687Z,16.27
2022-11-07T13:06:03.319Z,16.18
2022-11-07T13:08:45.122Z,16.11
2022-11-07T13:11:38.081Z,16.05
2022-11-07T13:14:34.061Z,16.02
2022-11-07T13:17:16.047Z,16.00
2022-11-07T13:19:57.656Z,15.98
2022-11-07T13:22:36.248Z,15.96
2022-11-07T13:25:16.364Z,15.92
2022-11-07T13:27:59.406Z,15.88
2022-11-07T13:30:52.206Z,15.87
2022-11-07T13:33:33.180Z,15.82
2022-11-07T13:36:25.393Z,15.90
2022-11-07T13:38:55.534Z,15.93
2022-11-07T13:41:23.708Z,15.95
2022-11-07T13:43:57.780Z,15.89
2022-11-07T13:46:39.017Z,15.94
2022-11-07T13:49:19.227Z,15.92
2022-11-07T13:51:51.099Z,15.97
2022-11-07T13:54:45.736Z,16.01
2022-11-07T13:57:47.989Z,16.14
2022-11-07T14:00:17.125Z,16.20
2022-11-07T14:02:55.110Z,16.16
2022-11-07T14:05:27.736Z,16.31
2022-11-07T14:08:00.009Z,16.26
2022-11-07T14:10:40.144Z,16.31
2022-11-07T14:13:13.877Z,16.33
2022-11-07T14:15:53.173Z,16.27
2022-11-07T14:18:23.045Z,16.26
2022-11-07T14:20:57.766Z,16.22
2022-11-07T14:23:30.180Z,16.19
2022-11-07T14:25:58.423Z,16.20
2022-11-07T14:28:36.429Z,16.18
2022-11-07T14:31:08.858Z,16.08
2022-11-07T14:33:35.432Z,16.05
2022-11-07T14:36:08.799Z,16.05
2022-11-07T14:38:35.442Z,16.02
2022-11-07T14:41:02.660Z,15.96
2022-11-07T14:43:30.962Z,15.88
2022-11-07T14:46:13.314Z,15.87
2022-11-07T14:48:44.675Z,15.85
2022-11-07T14:51:15.040Z,15.86
2022-11-07T14:54:01.376Z,15.86
2022-11-07T14:56:38.397Z,15.77
2022-11-07T14:59:08.951Z,15.75
2022-11-07T15:01:35.606Z,15.71
2022-11-07T15:04:16.286Z,15.71
2022-11-07T15:06:45.150Z,15.69
2022-11-07T15:09:15.206Z,15.69
2022-11-07T15:11:57.716Z,15.64
2022-11-07T15:14:34.310Z,15.63
2022-11-07T15:17:04.273Z,15.59
2022-11-07T15:19:34.363Z,15.58
2022-11-07T15:22:05.932Z,15.49
2022-11-07T15:24:32.512Z,15.52
2022-11-07T15:27:01.367Z,15.48
2022-11-07T15:29:33.664Z,15.45
2022-11-07T15:32:15.550Z,15.41
2022-11-07T15:35:03.777Z,15.39
2022-11-07T15:37:29.676Z,15.35
2022-11-07T15:39:56.388Z,15.33
2022-11-07T15:42:24.982Z,15.32
2022-11-07T15:44:51.486Z,15.30
2022-11-07T15:47:21.404Z,15.29
2022-11-07T15:49:48.573Z,15.27
2022-11-07T15:52:15.209Z,15.26
2022-11-07T15:54:49.196Z,15.25
2022-11-07T15:57:15.781Z,15.24
2022-11-07T15:59:43.565Z,15.18
2022-11-07T16:02:16.556Z,15.21
2022-11-07T16:04:43.877Z,15.18
2022-11-07T16:07:20.006Z,15.19
2022-11-07T16:09:48.724Z,15.20
2022-11-07T16:12:19.345Z,15.12
2022-11-07T16:14:45.921Z,15.16
2022-11-07T16:17:14.996Z,15.13
2022-11-07T16:19:44.525Z,15.11
2022-11-07T16:22:15.739Z,15.16
2022-11-07T16:24:42.380Z,15.16
2022-11-07T16:27:15.757Z,15.12
2022-11-07T16:29:44.176Z,15.14
2022-11-07T16:32:18.054Z,15.11
2022-11-07T16:34:45.162Z,15.14
2022-11-07T16:37:12.002Z,15.13
2022-11-07T16:39:38.569Z,15.13
2022-11-07T16:42:05.133Z,15.11
2022-11-07T16:44:31.822Z,15.09
2022-11-07T16:46:58.634Z,15.07
2022-11-07T16:49:33.936Z,15.02
2022-11-07T16:52:04.141Z,15.07
2022-11-07T16:54:30.779Z,15.08
2022-11-07T16:56:57.391Z,15.09
2022-11-07T16:59:24.860Z,15.07
2022-11-07T17:01:52.316Z,15.10
2022-11-07T17:04:19.069Z,15.05
2022-11-07T17:06:48.295Z,15.12
2022-11-07T17:09:16.826Z,15.11
2022-11-07T17:11:46.462Z,15.12
2022-11-07T17:14:13.515Z,15.13
2022-11-07T17:16:46.394Z,15.12
2022-11-07T17:19:13.699Z,15.10
2022-11-07T17:21:46.244Z,15.11
2022-11-07T17:24:13.723Z,15.11
2022-11-07T17:26:40.692Z,15.10
2022-11-07T17:29:12.446Z,15.04
2022-11-07T17:31:39.998Z,15.08
2022-11-07T17:34:06.599Z,15.08
2022-11-07T17:36:40.400Z,15.08
2022-11-07T17:39:12.020Z,15.11
2022-11-07T17:41:43.454Z,15.10
2022-11-07T17:44:11.032Z,15.05
2022-11-07T17:46:41.991Z,15.05
2022-11-07T17:49:11.156Z,14.99
2022-11-07T17:51:41.745Z,14.94
2022-11-07T17:54:12.539Z,14.90
2022-11-07T17:56:39.669Z,14.85
2022-11-07T17:59:10.343Z,14.80
2022-11-07T18:01:39.175Z,14.77
2022-11-07T18:04:07.356Z,14.78
2022-11-07T18:06:39.899Z,14.79
2022-11-07T18:09:08.142Z,14.79
2022-11-07T18:11:35.550Z,14.73
2022-11-07T18:14:02.913Z,14.78
2022-11-07T18:16:32.979Z,14.78
2022-11-07T18:19:00.667Z,14.75
2022-11-07T18:21:27.717Z,14.77
2022-11-07T18:23:56.650Z,14.73
2022-11-07T18:26:33.255Z,14.62
2022-11-07T18:29:09.481Z,14.60
2022-11-07T18:31:41.173Z,14.59
2022-11-07T18:34:12.386Z,14.54
2022-11-07T18:36:41.202Z,14.51
2022-11-07T18:39:12.631Z,14.46
2022-11-07T18:41:42.029Z,14.38
2022-11-07T18:44:09.480Z,14.39
2022-11-07T18:46:36.448Z,14.32
2022-11-07T18:49:03.916Z,14.34
2022-11-07T18:51:30.883Z,14.40
2022-11-07T18:54:02.008Z,14.47
2022-11-07T18:56:28.688Z,14.50
2022-11-07T18:58:58.154Z,14.56
2022-11-07T19:01:28.434Z,14.59
2022-11-07T19:03:56.765Z,14.56
2022-11-07T19:06:28.011Z,14.60
2022-11-07T19:08:54.746Z,14.60
2022-11-07T19:11:26.480Z,14.65
2022-11-07T19:13:56.569Z,14.68
2022-11-07T19:16:23.464Z,14.66
2022-11-07T19:18:51.079Z,14.69
2022-11-07T19:21:21.033Z,14.70
2022-11-07T19:23:48.644Z,14.58
2022-11-07T19:26:15.261Z,14.54
2022-11-07T19:28:41.922Z,14.50
2022-11-07T19:31:10.881Z,14.47
2022-11-07T19:33:37.661Z,14.51
2022-11-07T19:36:15.708Z,14.53
2022-11-07T19:38:42.752Z,14.51
2022-11-07T19:41:10.476Z,14.53
2022-11-07T19:43:38.127Z,14.46
2022-11-07T19:46:14.551Z,14.39
2022-11-07T19:48:41.453Z,14.26
2022-11-07T19:51:21.536Z,14.25
2022-11-07T19:53:56.543Z,14.23
2022-11-07T19:56:24.584Z,14.14
2022-11-07T19:58:51.587Z,14.14
2022-11-07T20:01:22.354Z,14.10
2022-11-07T20:03:52.640Z,14.08
2022-11-07T20:06:21.858Z,14.07
2022-11-07T20:08:49.268Z,14.05
2022-11-07T20:11:19.437Z,14.05
2022-11-07T20:13:46.471Z,14.07
2022-11-07T20:16:13.085Z,14.07
2022-11-07T20:18:40.601Z,14.11
2022-11-07T20:21:12.224Z,14.12
2022-11-07T20:23:40.141Z,14.13
2022-11-07T20:26:14.537Z,14.14
2022-11-07T20:28:41.627Z,14.17
2022-11-07T20:31:18.914Z,14.16
2022-11-07T20:33:45.618Z,14.22
2022-11-07T20:36:13.812Z,14.24
2022-11-07T20:38:41.657Z,14.22
2022-11-07T20:41:08.661Z,14.29
2022-11-07T20:43:35.330Z,14.30
2022-11-07T20:46:13.080Z,14.31
2022-11-07T20:48:39.823Z,14.28
2022-11-07T20:51:12.056Z,14.33
2022-11-07T20:53:39.934Z,14.33
2022-11-07T20:56:09.642Z,14.33
2022-11-07T20:58:38.692Z,14.30
2022-11-07T21:01:08.855Z,14.38
2022-11-07T21:03:35.546Z,14.36
2022-11-07T21:06:02.321Z,14.39
2022-11-07T21:08:36.967Z,14.40
2022-11-07T21:11:03.890Z,14.32
2022-11-07T21:13:30.512Z,14.39
2022-11-07T21:15:57.028Z,14.37
2022-11-07T21:18:24.527Z,14.40
2022-11-07T21:20:51.032Z,14.39
2022-11-07T21:23:18.222Z,14.40
2022-11-07T21:25:47.899Z,14.35
2022-11-07T21:28:19.746Z,14.39
2022-11-07T21:30:59.086Z,14.38
2022-11-07T21:33:29.342Z,14.39
2022-11-07T21:35:58.287Z,14.38
2022-11-07T21:38:25.174Z,14.38
2022-11-07T21:40:52.241Z,14.38
2022-11-07T21:43:19.601Z,14.31
2022-11-07T21:45:46.552Z,14.34
2022-11-07T21:48:13.086Z,14.32
2022-11-07T21:50:45.611Z,14.33
2022-11-07T21:53:14.871Z,14.31
2022-11-07T21:55:41.622Z,14.31
2022-11-07T21:58:08.124Z,14.30
2022-11-07T22:00:37.213Z,14.21
2022-11-07T22:03:04.837Z,14.17
2022-11-07T22:05:31.496Z,14.17
2022-11-07T22:07:58.208Z,14.14
2022-11-07T22:10:24.739Z,13.99
2022-11-07T22:12:52.472Z,14.10
2022-11-07T22:15:21.263Z,14.06
2022-11-07T22:17:56.709Z,14.13
2022-11-07T22:20:25.746Z,14.07
2022-11-07T22:22:52.355Z,14.00
2022-11-07T22:25:19.107Z,13.90
2022-11-07T22:27:45.645Z,13.92
2022-11-07T22:30:12.536Z,13.85
2022-11-07T22:32:39.043Z,13.81
2022-11-07T22:35:09.182Z,13.77
2022-11-07T22:37:38.473Z,13.74
2022-11-07T22:40:05.506Z,13.72
2022-11-07T22:42:32.046Z,13.68
2022-11-07T22:44:58.551Z,13.64
2022-11-07T22:47:25.085Z,13.60
2022-11-07T22:49:51.727Z,13.53
2022-11-07T22:52:18.227Z,13.53
2022-11-07T22:54:44.735Z,13.45
2022-11-07T22:57:15.318Z,13.51
2022-11-07T22:59:44.161Z,13.50
2022-11-07T23:02:10.804Z,13.47
2022-11-07T23:04:37.478Z,13.36
2022-11-07T23:07:04.088Z,13.30
2022-11-07T23:09:31.320Z,13.31
2022-11-07T23:12:00.541Z,13.27
2022-11-07T23:14:27.246Z,13.21
2022-11-07T23:16:57.087Z,13.20
2022-11-07T23:19:25.079Z,13.14
2022-11-07T23:21:56.411Z,13.07
2022-11-07T23:24:23.472Z,13.04
2022-11-07T23:26:51.083Z,13.06
2022-11-07T23:29:23.197Z,13.05
2022-11-07T23:31:52.768Z,13.05
2022-11-07T23:34:20.367Z,13.00
2022-11-07T23:36:50.056Z,13.02
2022-11-07T23:39:19.027Z,12.98
2022-11-07T23:41:46.102Z,12.91
2022-11-07T23:44:14.842Z,12.93
2022-11-07T23:47:00.589Z,12.89
2022-11-07T23:49:45.884Z,12.84
2022-11-07T23:52:12.467Z,12.79
2022-11-07T23:55:00.017Z,12.76
2022-11-07T23:57:26.581Z,12.72
